sensor_id;sensor_type;location;lat;lon;timestamp;temperature;humidity
24410;DHT22;12543;53.364;-1.504;2023-03-14T00:01:30;5.80;99.90
24410;DHT22;12543;53.364;-1.504;2023-03-14T00:03:57;5.80;99.90
24410;DHT22;12543;53.364;-1.504;2023-03-14T00:06:24;5.80;99.90
24410;DHT22;12543;53.364;-1.504;2023-03-14T00:08:51;5.70;99.90
24410;DHT22;12543;53.364;-1.504;2023-03-14T00:11:19;5.70;99.90
24410;DHT22;12543;53.364;-1.504;2023-03-14T00:13:47;5.70;99.90
24410;DHT22;12543;53.364;-1.504;2023-03-14T00:16:14;5.70;99.90
24410;DHT22;12543;53.364;-1.504;2023-03-14T00:18:41;5.70;99.90
24410;DHT22;12543;53.364;-1.504;2023-03-14T00:21:09;5.60;99.90
24410;DHT22;12543;53.364;-1.504;2023-03-14T00:23:37;5.60;99.90
24410;DHT22;12543;53.364;-1.504;2023-03-14T00:26:05;5.60;99.90
24410;DHT22;12543;53.364;-1.504;2023-03-14T00:28:33;5.60;99.90
24410;DHT22;12543;53.364;-1.504;2023-03-14T00:31:02;5.60;99.90
24410;DHT22;12543;53.364;-1.504;2023-03-14T00:33:29;5.60;99.90
24410;DHT22;12543;53.364;-1.504;2023-03-14T00:35:56;5.60;99.90
24410;DHT22;12543;53.364;-1.504;2023-03-14T00:38:24;5.50;99.90
24410;DHT22;12543;53.364;-1.504;2023-03-14T00:40:51;5.50;99.90
24410;DHT22;12543;53.364;-1.504;2023-03-14T00:43:19;5.50;99.90
24410;DHT22;12543;53.364;-1.504;2023-03-14T00:45:48;5.50;99.90
24410;DHT22;12543;53.364;-1.504;2023-03-14T00:48:16;5.50;99.90
24410;DHT22;12543;53.364;-1.504;2023-03-14T00:50:43;5.40;99.90
24410;DHT22;12543;53.364;-1.504;2023-03-14T00:53:10;5.40;99.90
24410;DHT22;12543;53.364;-1.504;2023-03-14T00:55:41;5.40;99.90
24410;DHT22;12543;53.364;-1.504;2023-03-14T00:58:09;5.40;99.90
24410;DHT22;12543;53.364;-1.504;2023-03-14T01:00:37;5.40;99.90
24410;DHT22;12543;53.364;-1.504;2023-03-14T01:03:05;5.50;99.90
24410;DHT22;12543;53.364;-1.504;2023-03-14T01:05:33;5.40;99.90
24410;DHT22;12543;53.364;-1.504;2023-03-14T01:08:00;5.50;99.90
24410;DHT22;12543;53.364;-1.504;2023-03-14T01:10:27;5.40;99.90
24410;DHT22;12543;53.364;-1.504;2023-03-14T01:12:54;5.40;99.90
24410;DHT22;12543;53.364;-1.504;2023-03-14T01:15:21;5.40;99.90
24410;DHT22;12543;53.364;-1.504;2023-03-14T01:17:48;5.40;99.90
24410;DHT22;12543;53.364;-1.504;2023-03-14T01:20:15;5.40;99.90
24410;DHT22;12543;53.364;-1.504;2023-03-14T01:22:43;5.30;99.90
24410;DHT22;12543;53.364;-1.504;2023-03-14T01:25:11;5.30;99.90
24410;DHT22;12543;53.364;-1.504;2023-03-14T01:27:38;5.30;99.90
24410;DHT22;12543;53.364;-1.504;2023-03-14T01:30:06;5.30;99.90
24410;DHT22;12543;53.364;-1.504;2023-03-14T01:32:34;5.30;99.90
24410;DHT22;12543;53.364;-1.504;2023-03-14T01:35:02;5.30;99.90
24410;DHT22;12543;53.364;-1.504;2023-03-14T01:37:29;5.30;99.90
24410;DHT22;12543;53.364;-1.504;2023-03-14T01:39:56;5.30;99.90
24410;DHT22;12543;53.364;-1.504;2023-03-14T01:42:23;5.20;99.90
24410;DHT22;12543;53.364;-1.504;2023-03-14T01:44:57;5.20;99.90
24410;DHT22;12543;53.364;-1.504;2023-03-14T01:47:24;5.20;99.90
24410;DHT22;12543;53.364;-1.504;2023-03-14T01:50:03;5.10;99.90
24410;DHT22;12543;53.364;-1.504;2023-03-14T01:52:32;5.10;99.90
24410;DHT22;12543;53.364;-1.504;2023-03-14T01:55:05;5.10;99.90
24410;DHT22;12543;53.364;-1.504;2023-03-14T01:57:37;5.00;99.90
24410;DHT22;12543;53.364;-1.504;2023-03-14T02:00:13;5.00;99.90
24410;DHT22;12543;53.364;-1.504;2023-03-14T02:02:43;5.00;99.90
24410;DHT22;12543;53.364;-1.504;2023-03-14T02:05:14;5.00;99.90
24410;DHT22;12543;53.364;-1.504;2023-03-14T02:07:50;5.00;99.90
24410;DHT22;12543;53.364;-1.504;2023-03-14T02:10:27;5.00;99.90
24410;DHT22;12543;53.364;-1.504;2023-03-14T02:12:56;4.90;99.90
24410;DHT22;12543;53.364;-1.504;2023-03-14T02:15:36;4.90;99.90
24410;DHT22;12543;53.364;-1.504;2023-03-14T02:18:26;4.90;99.90
24410;DHT22;12543;53.364;-1.504;2023-03-14T02:21:03;4.90;99.90
24410;DHT22;12543;53.364;-1.504;2023-03-14T02:23:35;4.90;99.90
24410;DHT22;12543;53.364;-1.504;2023-03-14T02:26:08;4.90;99.90
24410;DHT22;12543;53.364;-1.504;2023-03-14T02:28:37;4.90;99.90
24410;DHT22;12543;53.364;-1.504;2023-03-14T02:31:04;4.80;99.90
24410;DHT22;12543;53.364;-1.504;2023-03-14T02:33:33;4.80;99.90
24410;DHT22;12543;53.364;-1.504;2023-03-14T02:36:07;4.80;99.90
24410;DHT22;12543;53.364;-1.504;2023-03-14T02:38:45;4.80;99.90
24410;DHT22;12543;53.364;-1.504;2023-03-14T02:41:13;4.80;99.90
24410;DHT22;12543;53.364;-1.504;2023-03-14T02:43:46;4.80;99.90
24410;DHT22;12543;53.364;-1.504;2023-03-14T02:46:16;4.80;99.90
24410;DHT22;12543;53.364;-1.504;2023-03-14T02:51:24;4.70;99.90
24410;DHT22;12543;53.364;-1.504;2023-03-14T02:53:52;4.70;99.90
24410;DHT22;12543;53.364;-1.504;2023-03-14T02:56:21;4.60;99.90
24410;DHT22;12543;53.364;-1.504;2023-03-14T02:58:48;4.60;99.90
24410;DHT22;12543;53.364;-1.504;2023-03-14T03:01:38;4.60;99.90
24410;DHT22;12543;53.364;-1.504;2023-03-14T03:04:06;4.50;99.90
24410;DHT22;12543;53.364;-1.504;2023-03-14T03:06:33;4.50;99.90
24410;DHT22;12543;53.364;-1.504;2023-03-14T03:09:00;4.50;99.90
24410;DHT22;12543;53.364;-1.504;2023-03-14T03:11:27;4.40;99.90
24410;DHT22;12543;53.364;-1.504;2023-03-14T03:13:55;4.40;99.90
24410;DHT22;12543;53.364;-1.504;2023-03-14T03:16:22;4.40;99.90
24410;DHT22;12543;53.364;-1.504;2023-03-14T03:18:49;4.30;99.90
24410;DHT22;12543;53.364;-1.504;2023-03-14T03:21:16;4.30;99.90
24410;DHT22;12543;53.364;-1.504;2023-03-14T03:23:44;4.30;99.90
24410;DHT22;12543;53.364;-1.504;2023-03-14T03:26:11;4.30;99.90
24410;DHT22;12543;53.364;-1.504;2023-03-14T03:28:38;4.30;99.90
24410;DHT22;12543;53.364;-1.504;2023-03-14T03:31:09;4.20;99.90
24410;DHT22;12543;53.364;-1.504;2023-03-14T03:33:38;4.20;99.90
24410;DHT22;12543;53.364;-1.504;2023-03-14T03:36:05;4.20;99.90
24410;DHT22;12543;53.364;-1.504;2023-03-14T03:38:35;4.20;99.90
24410;DHT22;12543;53.364;-1.504;2023-03-14T03:41:05;4.20;99.90
24410;DHT22;12543;53.364;-1.504;2023-03-14T03:43:32;4.20;99.90
24410;DHT22;12543;53.364;-1.504;2023-03-14T03:46:04;4.20;99.90
24410;DHT22;12543;53.364;-1.504;2023-03-14T03:48:32;4.20;99.90
24410;DHT22;12543;53.364;-1.504;2023-03-14T03:51:02;4.20;99.90
24410;DHT22;12543;53.364;-1.504;2023-03-14T03:53:30;4.10;99.90
24410;DHT22;12543;53.364;-1.504;2023-03-14T03:56:06;4.20;99.90
24410;DHT22;12543;53.364;-1.504;2023-03-14T03:58:33;4.10;99.90
24410;DHT22;12543;53.364;-1.504;2023-03-14T04:01:01;4.10;99.90
24410;DHT22;12543;53.364;-1.504;2023-03-14T04:03:28;4.10;99.90
24410;DHT22;12543;53.364;-1.504;2023-03-14T04:05:59;4.10;99.90
24410;DHT22;12543;53.364;-1.504;2023-03-14T04:08:26;4.10;99.90
24410;DHT22;12543;53.364;-1.504;2023-03-14T04:10:57;4.00;99.90
24410;DHT22;12543;53.364;-1.504;2023-03-14T04:13:45;4.00;99.90
24410;DHT22;12543;53.364;-1.504;2023-03-14T04:16:14;4.00;99.90
24410;DHT22;12543;53.364;-1.504;2023-03-14T04:18:42;3.90;99.90
24410;DHT22;12543;53.364;-1.504;2023-03-14T04:21:10;3.90;99.90
24410;DHT22;12543;53.364;-1.504;2023-03-14T04:23:44;3.90;99.90
24410;DHT22;12543;53.364;-1.504;2023-03-14T04:26:11;3.90;99.90
24410;DHT22;12543;53.364;-1.504;2023-03-14T04:28:38;3.80;99.90
24410;DHT22;12543;53.364;-1.504;2023-03-14T04:31:07;3.80;99.90
24410;DHT22;12543;53.364;-1.504;2023-03-14T04:33:35;3.80;99.90
24410;DHT22;12543;53.364;-1.504;2023-03-14T04:36:04;3.80;99.90
24410;DHT22;12543;53.364;-1.504;2023-03-14T04:38:32;3.80;99.90
24410;DHT22;12543;53.364;-1.504;2023-03-14T04:40:59;3.80;99.90
24410;DHT22;12543;53.364;-1.504;2023-03-14T04:43:30;3.80;99.90
24410;DHT22;12543;53.364;-1.504;2023-03-14T04:46:03;3.80;99.90
24410;DHT22;12543;53.364;-1.504;2023-03-14T04:48:30;3.80;99.90
24410;DHT22;12543;53.364;-1.504;2023-03-14T04:50:58;3.80;99.90
24410;DHT22;12543;53.364;-1.504;2023-03-14T04:53:28;3.80;99.90
24410;DHT22;12543;53.364;-1.504;2023-03-14T04:55:59;3.80;99.90
24410;DHT22;12543;53.364;-1.504;2023-03-14T04:58:33;3.80;99.90
24410;DHT22;12543;53.364;-1.504;2023-03-14T05:01:01;3.80;99.90
24410;DHT22;12543;53.364;-1.504;2023-03-14T05:03:43;3.80;99.90
24410;DHT22;12543;53.364;-1.504;2023-03-14T05:06:19;3.90;99.90
24410;DHT22;12543;53.364;-1.504;2023-03-14T05:09:01;3.80;99.90
24410;DHT22;12543;53.364;-1.504;2023-03-14T05:11:47;3.80;99.90
24410;DHT22;12543;53.364;-1.504;2023-03-14T05:14:32;3.80;99.90
24410;DHT22;12543;53.364;-1.504;2023-03-14T05:17:12;3.80;99.90
24410;DHT22;12543;53.364;-1.504;2023-03-14T05:19:46;3.80;99.90
24410;DHT22;12543;53.364;-1.504;2023-03-14T05:22:23;3.70;99.90
24410;DHT22;12543;53.364;-1.504;2023-03-14T05:25:10;3.70;99.90
24410;DHT22;12543;53.364;-1.504;2023-03-14T05:27:40;3.70;99.90
24410;DHT22;12543;53.364;-1.504;2023-03-14T05:30:25;3.70;99.90
24410;DHT22;12543;53.364;-1.504;2023-03-14T05:33:13;3.70;99.90
24410;DHT22;12543;53.364;-1.504;2023-03-14T05:36:09;3.60;99.90
24410;DHT22;12543;53.364;-1.504;2023-03-14T05:38:59;3.60;99.90
24410;DHT22;12543;53.364;-1.504;2023-03-14T05:41:46;3.60;99.90
24410;DHT22;12543;53.364;-1.504;2023-03-14T05:44:43;3.60;99.90
24410;DHT22;12543;53.364;-1.504;2023-03-14T05:47:36;3.60;99.90
24410;DHT22;12543;53.364;-1.504;2023-03-14T05:50:25;3.60;99.90
24410;DHT22;12543;53.364;-1.504;2023-03-14T05:53:07;3.60;99.90
24410;DHT22;12543;53.364;-1.504;2023-03-14T05:55:52;3.70;99.90
24410;DHT22;12543;53.364;-1.504;2023-03-14T05:58:45;3.60;99.90
24410;DHT22;12543;53.364;-1.504;2023-03-14T06:01:25;3.60;99.90
24410;DHT22;12543;53.364;-1.504;2023-03-14T06:04:05;3.60;99.90
24410;DHT22;12543;53.364;-1.504;2023-03-14T06:06:32;3.60;99.90
24410;DHT22;12543;53.364;-1.504;2023-03-14T06:09:00;3.60;99.90
24410;DHT22;12543;53.364;-1.504;2023-03-14T06:11:30;3.60;99.90
24410;DHT22;12543;53.364;-1.504;2023-03-14T06:13:57;3.50;99.90
24410;DHT22;12543;53.364;-1.504;2023-03-14T06:16:24;3.50;99.90
24410;DHT22;12543;53.364;-1.504;2023-03-14T06:18:52;3.50;99.90
24410;DHT22;12543;53.364;-1.504;2023-03-14T06:21:21;3.60;99.90
24410;DHT22;12543;53.364;-1.504;2023-03-14T06:23:49;3.60;99.90
24410;DHT22;12543;53.364;-1.504;2023-03-14T06:26:16;3.50;99.90
24410;DHT22;12543;53.364;-1.504;2023-03-14T06:28:43;3.50;99.90
24410;DHT22;12543;53.364;-1.504;2023-03-14T06:31:10;3.50;99.90
24410;DHT22;12543;53.364;-1.504;2023-03-14T06:33:47;3.50;99.90
24410;DHT22;12543;53.364;-1.504;2023-03-14T06:36:15;3.50;99.90
24410;DHT22;12543;53.364;-1.504;2023-03-14T06:38:45;3.50;99.90
24410;DHT22;12543;53.364;-1.504;2023-03-14T06:41:12;3.50;99.90
24410;DHT22;12543;53.364;-1.504;2023-03-14T06:43:42;3.50;99.90
24410;DHT22;12543;53.364;-1.504;2023-03-14T06:46:09;3.40;99.90
24410;DHT22;12543;53.364;-1.504;2023-03-14T06:48:38;3.40;99.90
24410;DHT22;12543;53.364;-1.504;2023-03-14T06:51:06;3.40;99.90
24410;DHT22;12543;53.364;-1.504;2023-03-14T06:53:33;3.40;99.90
24410;DHT22;12543;53.364;-1.504;2023-03-14T06:56:02;3.30;99.90
24410;DHT22;12543;53.364;-1.504;2023-03-14T06:58:31;3.30;99.90
24410;DHT22;12543;53.364;-1.504;2023-03-14T07:00:59;3.30;99.90
24410;DHT22;12543;53.364;-1.504;2023-03-14T07:03:31;3.30;99.90
24410;DHT22;12543;53.364;-1.504;2023-03-14T07:05:59;3.20;99.90
24410;DHT22;12543;53.364;-1.504;2023-03-14T07:08:26;3.20;99.90
24410;DHT22;12543;53.364;-1.504;2023-03-14T07:10:55;3.10;99.90
24410;DHT22;12543;53.364;-1.504;2023-03-14T07:13:23;3.10;99.90
24410;DHT22;12543;53.364;-1.504;2023-03-14T07:16:04;3.00;99.90
24410;DHT22;12543;53.364;-1.504;2023-03-14T07:18:32;3.00;99.90
24410;DHT22;12543;53.364;-1.504;2023-03-14T07:21:02;3.00;99.90
24410;DHT22;12543;53.364;-1.504;2023-03-14T07:23:29;2.90;99.90
24410;DHT22;12543;53.364;-1.504;2023-03-14T07:25:57;2.90;99.90
24410;DHT22;12543;53.364;-1.504;2023-03-14T07:28:25;2.90;99.90
24410;DHT22;12543;53.364;-1.504;2023-03-14T07:31:02;2.90;99.90
24410;DHT22;12543;53.364;-1.504;2023-03-14T07:33:31;3.00;99.90
24410;DHT22;12543;53.364;-1.504;2023-03-14T07:35:58;3.00;99.90
24410;DHT22;12543;53.364;-1.504;2023-03-14T07:38:26;3.00;99.90
24410;DHT22;12543;53.364;-1.504;2023-03-14T07:41:11;3.00;99.90
24410;DHT22;12543;53.364;-1.504;2023-03-14T07:43:58;3.00;99.90
24410;DHT22;12543;53.364;-1.504;2023-03-14T07:46:25;3.00;99.90
24410;DHT22;12543;53.364;-1.504;2023-03-14T07:48:52;3.00;99.90
24410;DHT22;12543;53.364;-1.504;2023-03-14T07:51:19;3.10;99.90
24410;DHT22;12543;53.364;-1.504;2023-03-14T07:53:46;3.10;99.90
24410;DHT22;12543;53.364;-1.504;2023-03-14T07:56:13;3.10;99.90
24410;DHT22;12543;53.364;-1.504;2023-03-14T07:58:40;3.10;99.90
24410;DHT22;12543;53.364;-1.504;2023-03-14T08:01:07;3.10;99.90
24410;DHT22;12543;53.364;-1.504;2023-03-14T08:03:34;3.10;99.90
24410;DHT22;12543;53.364;-1.504;2023-03-14T08:06:01;3.20;99.90
24410;DHT22;12543;53.364;-1.504;2023-03-14T08:08:28;3.20;99.90
24410;DHT22;12543;53.364;-1.504;2023-03-14T08:10:55;3.20;99.90
24410;DHT22;12543;53.364;-1.504;2023-03-14T08:13:22;3.20;99.90
24410;DHT22;12543;53.364;-1.504;2023-03-14T08:15:51;3.20;99.90
24410;DHT22;12543;53.364;-1.504;2023-03-14T08:18:18;3.20;99.90
24410;DHT22;12543;53.364;-1.504;2023-03-14T08:20:45;3.20;99.90
24410;DHT22;12543;53.364;-1.504;2023-03-14T08:23:12;3.20;99.90
24410;DHT22;12543;53.364;-1.504;2023-03-14T08:25:39;3.30;99.90
24410;DHT22;12543;53.364;-1.504;2023-03-14T08:28:06;3.30;99.90
24410;DHT22;12543;53.364;-1.504;2023-03-14T08:30:33;3.30;99.90
24410;DHT22;12543;53.364;-1.504;2023-03-14T08:33:00;3.30;99.90
24410;DHT22;12543;53.364;-1.504;2023-03-14T08:35:27;3.30;99.90
24410;DHT22;12543;53.364;-1.504;2023-03-14T08:37:54;3.40;99.90
24410;DHT22;12543;53.364;-1.504;2023-03-14T08:40:22;3.40;99.90
24410;DHT22;12543;53.364;-1.504;2023-03-14T08:42:49;3.50;99.90
24410;DHT22;12543;53.364;-1.504;2023-03-14T08:45:16;3.50;99.90
24410;DHT22;12543;53.364;-1.504;2023-03-14T08:47:44;3.60;99.90
24410;DHT22;12543;53.364;-1.504;2023-03-14T08:50:11;3.70;99.90
24410;DHT22;12543;53.364;-1.504;2023-03-14T08:52:42;3.70;99.90
24410;DHT22;12543;53.364;-1.504;2023-03-14T08:55:09;3.80;99.90
24410;DHT22;12543;53.364;-1.504;2023-03-14T08:57:36;3.90;99.90
24410;DHT22;12543;53.364;-1.504;2023-03-14T09:00:04;4.00;99.90
24410;DHT22;12543;53.364;-1.504;2023-03-14T09:02:36;4.30;99.90
24410;DHT22;12543;53.364;-1.504;2023-03-14T09:05:03;4.60;99.90
24410;DHT22;12543;53.364;-1.504;2023-03-14T09:07:30;5.10;99.90
24410;DHT22;12543;53.364;-1.504;2023-03-14T09:09:58;5.70;99.90
24410;DHT22;12543;53.364;-1.504;2023-03-14T09:12:24;6.30;99.90
24410;DHT22;12543;53.364;-1.504;2023-03-14T09:14:52;6.90;99.90
24410;DHT22;12543;53.364;-1.504;2023-03-14T09:17:18;7.50;99.90
24410;DHT22;12543;53.364;-1.504;2023-03-14T09:19:45;8.00;99.90
24410;DHT22;12543;53.364;-1.504;2023-03-14T09:22:12;8.50;99.90
24410;DHT22;12543;53.364;-1.504;2023-03-14T09:24:40;9.10;99.90
24410;DHT22;12543;53.364;-1.504;2023-03-14T09:27:07;9.50;99.90
24410;DHT22;12543;53.364;-1.504;2023-03-14T09:29:34;9.90;99.90
24410;DHT22;12543;53.364;-1.504;2023-03-14T09:32:01;10.20;99.90
24410;DHT22;12543;53.364;-1.504;2023-03-14T09:34:28;10.50;99.90
24410;DHT22;12543;53.364;-1.504;2023-03-14T09:36:55;10.70;99.90
24410;DHT22;12543;53.364;-1.504;2023-03-14T09:39:23;10.90;99.90
24410;DHT22;12543;53.364;-1.504;2023-03-14T09:41:51;11.00;99.90
24410;DHT22;12543;53.364;-1.504;2023-03-14T09:46:50;11.40;99.90
24410;DHT22;12543;53.364;-1.504;2023-03-14T09:49:28;11.60;99.90
24410;DHT22;12543;53.364;-1.504;2023-03-14T09:51:56;11.80;99.90
24410;DHT22;12543;53.364;-1.504;2023-03-14T09:56:51;11.60;99.90
24410;DHT22;12543;53.364;-1.504;2023-03-14T09:59:18;11.40;99.90
24410;DHT22;12543;53.364;-1.504;2023-03-14T10:01:45;11.40;99.90
24410;DHT22;12543;53.364;-1.504;2023-03-14T10:04:14;11.40;99.90
24410;DHT22;12543;53.364;-1.504;2023-03-14T10:06:41;11.60;99.90
24410;DHT22;12543;53.364;-1.504;2023-03-14T10:09:11;11.90;99.90
24410;DHT22;12543;53.364;-1.504;2023-03-14T10:11:42;12.10;99.90
24410;DHT22;12543;53.364;-1.504;2023-03-14T10:14:09;12.50;99.90
24410;DHT22;12543;53.364;-1.504;2023-03-14T10:16:43;12.70;99.90
24410;DHT22;12543;53.364;-1.504;2023-03-14T10:19:14;13.20;99.90
24410;DHT22;12543;53.364;-1.504;2023-03-14T10:21:42;13.40;99.90
24410;DHT22;12543;53.364;-1.504;2023-03-14T10:24:16;13.70;99.90
24410;DHT22;12543;53.364;-1.504;2023-03-14T10:26:47;14.00;99.90
24410;DHT22;12543;53.364;-1.504;2023-03-14T10:29:14;14.40;99.90
24410;DHT22;12543;53.364;-1.504;2023-03-14T10:34:23;14.90;99.90
24410;DHT22;12543;53.364;-1.504;2023-03-14T10:37:33;15.20;99.90
24410;DHT22;12543;53.364;-1.504;2023-03-14T10:42:16;15.70;99.90
24410;DHT22;12543;53.364;-1.504;2023-03-14T10:44:44;15.80;99.90
24410;DHT22;12543;53.364;-1.504;2023-03-14T10:47:19;16.00;99.90
24410;DHT22;12543;53.364;-1.504;2023-03-14T10:49:47;16.10;99.90
24410;DHT22;12543;53.364;-1.504;2023-03-14T10:52:24;16.20;99.90
24410;DHT22;12543;53.364;-1.504;2023-03-14T10:55:11;16.30;99.90
24410;DHT22;12543;53.364;-1.504;2023-03-14T10:57:39;16.50;99.90
24410;DHT22;12543;53.364;-1.504;2023-03-14T11:00:14;16.40;99.90
24410;DHT22;12543;53.364;-1.504;2023-03-14T11:02:54;16.40;99.90
24410;DHT22;12543;53.364;-1.504;2023-03-14T11:10:40;15.50;99.90
24410;DHT22;12543;53.364;-1.504;2023-03-14T11:21:11;13.40;99.90
24410;DHT22;12543;53.364;-1.504;2023-03-14T11:28:47;11.70;99.90
24410;DHT22;12543;53.364;-1.504;2023-03-14T11:31:16;11.00;99.90
24410;DHT22;12543;53.364;-1.504;2023-03-14T11:36:32;10.10;99.90
24410;DHT22;12543;53.364;-1.504;2023-03-14T11:39:07;9.60;99.90
24410;DHT22;12543;53.364;-1.504;2023-03-14T11:41:41;9.20;99.90
24410;DHT22;12543;53.364;-1.504;2023-03-14T11:46:59;8.60;99.90
24410;DHT22;12543;53.364;-1.504;2023-03-14T11:49:34;8.30;99.90
24410;DHT22;12543;53.364;-1.504;2023-03-14T11:52:27;8.10;99.90
24410;DHT22;12543;53.364;-1.504;2023-03-14T11:55:00;7.90;99.90
24410;DHT22;12543;53.364;-1.504;2023-03-14T11:57:29;7.70;99.90
24410;DHT22;12543;53.364;-1.504;2023-03-14T12:02:45;7.80;99.90
24410;DHT22;12543;53.364;-1.504;2023-03-14T12:13:10;8.90;99.90
24410;DHT22;12543;53.364;-1.504;2023-03-14T12:15:39;9.30;99.90
24410;DHT22;12543;53.364;-1.504;2023-03-14T12:18:16;9.60;99.90
24410;DHT22;12543;53.364;-1.504;2023-03-14T12:20:52;9.90;99.90
24410;DHT22;12543;53.364;-1.504;2023-03-14T12:23:20;10.20;99.90
24410;DHT22;12543;53.364;-1.504;2023-03-14T12:25:47;10.40;99.90
24410;DHT22;12543;53.364;-1.504;2023-03-14T12:30:42;10.80;99.90
24410;DHT22;12543;53.364;-1.504;2023-03-14T12:38:03;11.10;99.90
24410;DHT22;12543;53.364;-1.504;2023-03-14T12:40:32;11.00;99.90
24410;DHT22;12543;53.364;-1.504;2023-03-14T12:43:00;11.00;99.90
24410;DHT22;12543;53.364;-1.504;2023-03-14T12:48:08;10.80;99.90
24410;DHT22;12543;53.364;-1.504;2023-03-14T12:50:45;10.70;99.90
24410;DHT22;12543;53.364;-1.504;2023-03-14T12:55:51;10.40;99.90
24410;DHT22;12543;53.364;-1.504;2023-03-14T13:01:23;10.30;99.90
24410;DHT22;12543;53.364;-1.504;2023-03-14T13:03:51;10.20;99.90
24410;DHT22;12543;53.364;-1.504;2023-03-14T13:09:52;9.90;99.90
24410;DHT22;12543;53.364;-1.504;2023-03-14T13:11:53;9.80;99.90
24410;DHT22;12543;53.364;-1.504;2023-03-14T13:14:20;9.70;99.90
24410;DHT22;12543;53.364;-1.504;2023-03-14T13:16:47;9.50;99.90
24410;DHT22;12543;53.364;-1.504;2023-03-14T13:19:24;9.30;99.90
24410;DHT22;12543;53.364;-1.504;2023-03-14T13:21:52;9.20;99.90
24410;DHT22;12543;53.364;-1.504;2023-03-14T13:24:24;9.00;99.90
24410;DHT22;12543;53.364;-1.504;2023-03-14T13:26:52;8.80;99.90
24410;DHT22;12543;53.364;-1.504;2023-03-14T13:29:30;8.70;99.90
24410;DHT22;12543;53.364;-1.504;2023-03-14T13:32:01;8.50;99.90
24410;DHT22;12543;53.364;-1.504;2023-03-14T13:34:29;8.40;99.90
24410;DHT22;12543;53.364;-1.504;2023-03-14T13:36:56;8.30;99.90
24410;DHT22;12543;53.364;-1.504;2023-03-14T13:39:24;8.20;99.90
24410;DHT22;12543;53.364;-1.504;2023-03-14T13:41:52;8.10;99.90
24410;DHT22;12543;53.364;-1.504;2023-03-14T13:46:59;8.10;99.90
24410;DHT22;12543;53.364;-1.504;2023-03-14T13:49:27;8.10;99.90
24410;DHT22;12543;53.364;-1.504;2023-03-14T13:51:55;8.10;99.90
24410;DHT22;12543;53.364;-1.504;2023-03-14T13:54:22;8.10;99.90
24410;DHT22;12543;53.364;-1.504;2023-03-14T13:56:49;8.00;99.90
24410;DHT22;12543;53.364;-1.504;2023-03-14T13:59:26;8.10;99.90
24410;DHT22;12543;53.364;-1.504;2023-03-14T14:01:53;8.00;99.90
24410;DHT22;12543;53.364;-1.504;2023-03-14T14:04:22;8.00;99.90
24410;DHT22;12543;53.364;-1.504;2023-03-14T14:06:55;7.90;99.90
24410;DHT22;12543;53.364;-1.504;2023-03-14T14:09:23;7.90;99.90
24410;DHT22;12543;53.364;-1.504;2023-03-14T14:11:53;7.90;99.90
24410;DHT22;12543;53.364;-1.504;2023-03-14T14:15:03;7.80;99.90
24410;DHT22;12543;53.364;-1.504;2023-03-14T14:17:30;7.70;99.90
24410;DHT22;12543;53.364;-1.504;2023-03-14T14:19:59;7.60;99.90
24410;DHT22;12543;53.364;-1.504;2023-03-14T14:22:27;7.50;99.90
24410;DHT22;12543;53.364;-1.504;2023-03-14T14:24:54;7.50;99.90
24410;DHT22;12543;53.364;-1.504;2023-03-14T14:27:28;7.40;99.90
24410;DHT22;12543;53.364;-1.504;2023-03-14T14:29:59;7.30;99.90
24410;DHT22;12543;53.364;-1.504;2023-03-14T14:32:33;7.20;99.90
24410;DHT22;12543;53.364;-1.504;2023-03-14T14:35:01;7.20;99.90
24410;DHT22;12543;53.364;-1.504;2023-03-14T14:37:48;7.10;99.90
24410;DHT22;12543;53.364;-1.504;2023-03-14T14:42:42;6.90;99.90
24410;DHT22;12543;53.364;-1.504;2023-03-14T14:45:19;6.80;99.90
24410;DHT22;12543;53.364;-1.504;2023-03-14T14:48:01;6.70;99.90
24410;DHT22;12543;53.364;-1.504;2023-03-14T14:52:58;6.50;99.90
24410;DHT22;12543;53.364;-1.504;2023-03-14T14:55:33;6.40;99.90
24410;DHT22;12543;53.364;-1.504;2023-03-14T14:58:11;6.40;99.90
24410;DHT22;12543;53.364;-1.504;2023-03-14T15:00:39;6.30;99.90
24410;DHT22;12543;53.364;-1.504;2023-03-14T15:03:10;6.20;99.90
24410;DHT22;12543;53.364;-1.504;2023-03-14T15:05:39;6.10;99.90
24410;DHT22;12543;53.364;-1.504;2023-03-14T15:08:09;6.10;99.90
24410;DHT22;12543;53.364;-1.504;2023-03-14T15:10:37;6.10;99.90
24410;DHT22;12543;53.364;-1.504;2023-03-14T15:13:04;6.00;99.90
24410;DHT22;12543;53.364;-1.504;2023-03-14T15:15:31;6.00;99.90
24410;DHT22;12543;53.364;-1.504;2023-03-14T15:17:58;6.00;99.90
24410;DHT22;12543;53.364;-1.504;2023-03-14T15:20:25;6.00;99.90
24410;DHT22;12543;53.364;-1.504;2023-03-14T15:22:52;6.00;99.90
24410;DHT22;12543;53.364;-1.504;2023-03-14T15:25:19;5.90;99.90
24410;DHT22;12543;53.364;-1.504;2023-03-14T15:30:44;5.80;99.90
24410;DHT22;12543;53.364;-1.504;2023-03-14T15:33:11;5.70;99.90
24410;DHT22;12543;53.364;-1.504;2023-03-14T15:35:38;5.70;99.90
24410;DHT22;12543;53.364;-1.504;2023-03-14T15:38:05;5.60;99.90
24410;DHT22;12543;53.364;-1.504;2023-03-14T15:40:32;5.60;99.90
24410;DHT22;12543;53.364;-1.504;2023-03-14T15:42:59;5.60;99.90
24410;DHT22;12543;53.364;-1.504;2023-03-14T15:45:26;5.50;99.90
24410;DHT22;12543;53.364;-1.504;2023-03-14T15:47:53;5.50;99.90
24410;DHT22;12543;53.364;-1.504;2023-03-14T15:50:20;5.50;99.90
24410;DHT22;12543;53.364;-1.504;2023-03-14T15:52:47;5.50;99.90
24410;DHT22;12543;53.364;-1.504;2023-03-14T15:55:14;5.40;99.90
24410;DHT22;12543;53.364;-1.504;2023-03-14T15:57:44;5.40;99.90
24410;DHT22;12543;53.364;-1.504;2023-03-14T16:00:13;5.40;99.90
24410;DHT22;12543;53.364;-1.504;2023-03-14T16:02:41;5.40;99.90
24410;DHT22;12543;53.364;-1.504;2023-03-14T16:05:09;5.30;99.90
24410;DHT22;12543;53.364;-1.504;2023-03-14T16:07:36;5.30;99.90
24410;DHT22;12543;53.364;-1.504;2023-03-14T16:10:03;5.30;99.90
24410;DHT22;12543;53.364;-1.504;2023-03-14T16:12:31;5.30;99.90
24410;DHT22;12543;53.364;-1.504;2023-03-14T16:14:58;5.30;99.90
24410;DHT22;12543;53.364;-1.504;2023-03-14T16:17:25;5.20;99.90
24410;DHT22;12543;53.364;-1.504;2023-03-14T16:19:53;5.20;99.90
24410;DHT22;12543;53.364;-1.504;2023-03-14T16:22:19;5.20;99.90
24410;DHT22;12543;53.364;-1.504;2023-03-14T16:24:47;5.20;99.90
24410;DHT22;12543;53.364;-1.504;2023-03-14T16:27:14;5.20;99.90
24410;DHT22;12543;53.364;-1.504;2023-03-14T16:29:41;5.20;99.90
24410;DHT22;12543;53.364;-1.504;2023-03-14T16:32:09;5.10;99.90
24410;DHT22;12543;53.364;-1.504;2023-03-14T16:34:39;5.10;99.90
24410;DHT22;12543;53.364;-1.504;2023-03-14T16:37:06;5.00;99.90
24410;DHT22;12543;53.364;-1.504;2023-03-14T16:39:33;5.00;99.90
24410;DHT22;12543;53.364;-1.504;2023-03-14T16:42:16;5.00;99.90
24410;DHT22;12543;53.364;-1.504;2023-03-14T16:44:43;4.90;99.90
24410;DHT22;12543;53.364;-1.504;2023-03-14T16:47:10;4.90;99.90
24410;DHT22;12543;53.364;-1.504;2023-03-14T16:49:37;4.90;99.90
24410;DHT22;12543;53.364;-1.504;2023-03-14T16:52:05;4.90;99.90
24410;DHT22;12543;53.364;-1.504;2023-03-14T16:54:32;4.80;99.90
24410;DHT22;12543;53.364;-1.504;2023-03-14T16:56:59;4.80;99.90
24410;DHT22;12543;53.364;-1.504;2023-03-14T16:59:26;4.70;99.90
24410;DHT22;12543;53.364;-1.504;2023-03-14T17:01:55;4.70;99.90
24410;DHT22;12543;53.364;-1.504;2023-03-14T17:04:22;4.70;99.90
24410;DHT22;12543;53.364;-1.504;2023-03-14T17:06:49;4.60;99.90